sensor_id;sensor_type;location;lat;lon;timestamp;temperature;humidity
843;DHT22;407;48.884;9.126;2022-11-14T00:02:02;4.00;1.00
843;DHT22;407;48.884;9.126;2022-11-14T00:04:28;4.50;1.00
843;DHT22;407;48.884;9.126;2022-11-14T00:06:54;4.60;1.00
843;DHT22;407;48.884;9.126;2022-11-14T00:09:23;3.70;1.00
843;DHT22;407;48.884;9.126;2022-11-14T00:11:48;4.10;1.00
843;DHT22;407;48.884;9.126;2022-11-14T00:14:14;4.30;1.00
843;DHT22;407;48.884;9.126;2022-11-14T00:16:39;3.70;1.00
843;DHT22;407;48.884;9.126;2022-11-14T00:19:05;3.60;1.00
843;DHT22;407;48.884;9.126;2022-11-14T00:21:31;3.60;1.00
843;DHT22;407;48.884;9.126;2022-11-14T00:23:56;3.60;1.00
843;DHT22;407;48.884;9.126;2022-11-14T00:26:22;3.60;1.00
843;DHT22;407;48.884;9.126;2022-11-14T00:28:47;4.50;1.00
843;DHT22;407;48.884;9.126;2022-11-14T00:31:13;3.60;1.00
843;DHT22;407;48.884;9.126;2022-11-14T00:33:38;3.50;1.00
843;DHT22;407;48.884;9.126;2022-11-14T00:36:04;3.60;1.00
843;DHT22;407;48.884;9.126;2022-11-14T00:38:30;3.40;1.00
843;DHT22;407;48.884;9.126;2022-11-14T00:40:55;3.40;1.00
843;DHT22;407;48.884;9.126;2022-11-14T00:43:21;3.30;1.00
843;DHT22;407;48.884;9.126;2022-11-14T00:45:47;3.30;1.00
843;DHT22;407;48.884;9.126;2022-11-14T00:48:13;3.30;1.00
843;DHT22;407;48.884;9.126;2022-11-14T00:50:39;4.40;1.00
843;DHT22;407;48.884;9.126;2022-11-14T00:53:06;3.30;1.00
843;DHT22;407;48.884;9.126;2022-11-14T00:55:31;4.00;1.00
843;DHT22;407;48.884;9.126;2022-11-14T00:57:57;3.20;1.00
843;DHT22;407;48.884;9.126;2022-11-14T01:00:23;3.20;1.00
843;DHT22;407;48.884;9.126;2022-11-14T01:02:48;3.20;1.00
843;DHT22;407;48.884;9.126;2022-11-14T01:05:14;4.20;1.00
843;DHT22;407;48.884;9.126;2022-11-14T01:07:39;3.10;1.00
843;DHT22;407;48.884;9.126;2022-11-14T01:10:05;3.00;1.00
843;DHT22;407;48.884;9.126;2022-11-14T01:12:33;3.10;1.00
843;DHT22;407;48.884;9.126;2022-11-14T01:14:58;3.10;1.00
843;DHT22;407;48.884;9.126;2022-11-14T01:17:24;3.10;1.00
843;DHT22;407;48.884;9.126;2022-11-14T01:19:53;3.10;1.00
843;DHT22;407;48.884;9.126;2022-11-14T01:22:18;3.10;1.00
843;DHT22;407;48.884;9.126;2022-11-14T01:24:44;3.20;1.00
843;DHT22;407;48.884;9.126;2022-11-14T01:27:10;3.70;1.00
843;DHT22;407;48.884;9.126;2022-11-14T01:29:35;3.20;1.00
843;DHT22;407;48.884;9.126;2022-11-14T01:32:01;3.10;1.00
843;DHT22;407;48.884;9.126;2022-11-14T01:34:27;3.10;1.00
843;DHT22;407;48.884;9.126;2022-11-14T01:36:54;3.10;1.00
843;DHT22;407;48.884;9.126;2022-11-14T01:39:19;3.00;1.00
843;DHT22;407;48.884;9.126;2022-11-14T01:41:45;3.00;1.00
843;DHT22;407;48.884;9.126;2022-11-14T01:44:16;3.20;1.00
843;DHT22;407;48.884;9.126;2022-11-14T01:46:45;3.20;1.00
843;DHT22;407;48.884;9.126;2022-11-14T01:49:26;4.40;1.00
843;DHT22;407;48.884;9.126;2022-11-14T01:51:58;3.40;1.00
843;DHT22;407;48.884;9.126;2022-11-14T01:54:29;3.40;1.00
843;DHT22;407;48.884;9.126;2022-11-14T01:56:59;4.30;1.00
843;DHT22;407;48.884;9.126;2022-11-14T01:59:29;3.70;1.00
843;DHT22;407;48.884;9.126;2022-11-14T02:01:58;3.70;1.00
843;DHT22;407;48.884;9.126;2022-11-14T02:04:32;4.00;1.00
843;DHT22;407;48.884;9.126;2022-11-14T02:07:02;4.50;1.00
843;DHT22;407;48.884;9.126;2022-11-14T02:09:30;3.90;1.00
843;DHT22;407;48.884;9.126;2022-11-14T02:11:58;3.90;1.00
843;DHT22;407;48.884;9.126;2022-11-14T02:14:26;3.90;1.00
843;DHT22;407;48.884;9.126;2022-11-14T02:16:52;4.10;1.00
843;DHT22;407;48.884;9.126;2022-11-14T02:19:18;4.10;1.00
843;DHT22;407;48.884;9.126;2022-11-14T02:21:44;4.10;1.00
843;DHT22;407;48.884;9.126;2022-11-14T02:24:10;4.20;1.00
843;DHT22;407;48.884;9.126;2022-11-14T02:26:37;4.20;1.00
843;DHT22;407;48.884;9.126;2022-11-14T02:29:04;4.20;1.00
843;DHT22;407;48.884;9.126;2022-11-14T02:31:30;4.10;1.00
843;DHT22;407;48.884;9.126;2022-11-14T02:33:55;4.20;1.00
843;DHT22;407;48.884;9.126;2022-11-14T02:36:21;5.00;1.00
843;DHT22;407;48.884;9.126;2022-11-14T02:38:47;4.20;1.00
843;DHT22;407;48.884;9.126;2022-11-14T02:41:13;5.40;1.00
843;DHT22;407;48.884;9.126;2022-11-14T02:43:38;4.20;1.00
843;DHT22;407;48.884;9.126;2022-11-14T02:46:04;4.20;1.00
843;DHT22;407;48.884;9.126;2022-11-14T02:48:29;4.30;1.00
843;DHT22;407;48.884;9.126;2022-11-14T02:50:55;4.30;1.00
843;DHT22;407;48.884;9.126;2022-11-14T02:53:21;4.30;1.00
843;DHT22;407;48.884;9.126;2022-11-14T02:55:46;5.20;1.00
843;DHT22;407;48.884;9.126;2022-11-14T02:58:12;3.80;1.00
843;DHT22;407;48.884;9.126;2022-11-14T03:00:37;4.40;1.00
843;DHT22;407;48.884;9.126;2022-11-14T03:03:03;4.40;1.00
843;DHT22;407;48.884;9.126;2022-11-14T03:05:28;4.60;1.00
843;DHT22;407;48.884;9.126;2022-11-14T03:07:55;4.40;1.00
843;DHT22;407;48.884;9.126;2022-11-14T03:10:21;5.60;1.00
843;DHT22;407;48.884;9.126;2022-11-14T03:12:47;4.30;1.00
843;DHT22;407;48.884;9.126;2022-11-14T03:15:12;4.20;1.00
843;DHT22;407;48.884;9.126;2022-11-14T03:17:38;4.10;1.00
843;DHT22;407;48.884;9.126;2022-11-14T03:20:04;4.00;1.00
843;DHT22;407;48.884;9.126;2022-11-14T03:22:30;3.90;1.00
843;DHT22;407;48.884;9.126;2022-11-14T03:24:56;3.90;1.00
843;DHT22;407;48.884;9.126;2022-11-14T03:27:21;3.80;1.00
843;DHT22;407;48.884;9.126;2022-11-14T03:29:48;3.80;1.00
843;DHT22;407;48.884;9.126;2022-11-14T03:32:14;3.80;1.00
843;DHT22;407;48.884;9.126;2022-11-14T03:34:39;3.80;1.00
843;DHT22;407;48.884;9.126;2022-11-14T03:37:05;3.80;1.00
843;DHT22;407;48.884;9.126;2022-11-14T03:39:30;5.00;1.00
843;DHT22;407;48.884;9.126;2022-11-14T03:41:56;3.70;1.00
843;DHT22;407;48.884;9.126;2022-11-14T03:44:21;3.70;1.00
843;DHT22;407;48.884;9.126;2022-11-14T03:46:47;3.60;1.00
843;DHT22;407;48.884;9.126;2022-11-14T03:49:13;3.50;1.00
843;DHT22;407;48.884;9.126;2022-11-14T03:51:38;3.50;1.00
843;DHT22;407;48.884;9.126;2022-11-14T03:54:04;3.50;1.00
843;DHT22;407;48.884;9.126;2022-11-14T03:56:30;3.50;1.00
843;DHT22;407;48.884;9.126;2022-11-14T03:58:55;3.50;1.00
843;DHT22;407;48.884;9.126;2022-11-14T04:01:21;3.50;1.00
843;DHT22;407;48.884;9.126;2022-11-14T04:03:46;3.60;1.00
843;DHT22;407;48.884;9.126;2022-11-14T04:06:12;3.60;1.00
843;DHT22;407;48.884;9.126;2022-11-14T04:08:39;3.60;1.00
843;DHT22;407;48.884;9.126;2022-11-14T04:11:05;3.70;1.00
843;DHT22;407;48.884;9.126;2022-11-14T04:13:31;3.60;1.00
843;DHT22;407;48.884;9.126;2022-11-14T04:15:57;3.60;1.00
843;DHT22;407;48.884;9.126;2022-11-14T04:18:24;3.70;1.00
843;DHT22;407;48.884;9.126;2022-11-14T04:20:50;3.70;1.00
843;DHT22;407;48.884;9.126;2022-11-14T04:23:16;3.70;1.00
843;DHT22;407;48.884;9.126;2022-11-14T04:25:43;4.00;1.00
843;DHT22;407;48.884;9.126;2022-11-14T04:28:09;3.50;1.00
843;DHT22;407;48.884;9.126;2022-11-14T04:30:35;3.50;1.00
843;DHT22;407;48.884;9.126;2022-11-14T04:33:00;3.50;1.00
843;DHT22;407;48.884;9.126;2022-11-14T04:35:26;3.40;1.00
843;DHT22;407;48.884;9.126;2022-11-14T04:37:52;3.30;1.00
843;DHT22;407;48.884;9.126;2022-11-14T04:40:17;3.30;1.00
843;DHT22;407;48.884;9.126;2022-11-14T04:42:43;3.30;1.00
843;DHT22;407;48.884;9.126;2022-11-14T04:45:09;3.70;1.00
843;DHT22;407;48.884;9.126;2022-11-14T04:47:34;3.30;1.00
843;DHT22;407;48.884;9.126;2022-11-14T04:50:00;3.40;1.00
843;DHT22;407;48.884;9.126;2022-11-14T04:52:26;3.40;1.00
843;DHT22;407;48.884;9.126;2022-11-14T04:54:51;3.40;1.00
843;DHT22;407;48.884;9.126;2022-11-14T04:57:17;3.60;1.00
843;DHT22;407;48.884;9.126;2022-11-14T04:59:43;3.30;1.00
843;DHT22;407;48.884;9.126;2022-11-14T05:02:08;3.40;1.00
843;DHT22;407;48.884;9.126;2022-11-14T05:04:34;3.30;1.00
843;DHT22;407;48.884;9.126;2022-11-14T05:07:00;3.30;1.00
843;DHT22;407;48.884;9.126;2022-11-14T05:09:25;3.10;1.00
843;DHT22;407;48.884;9.126;2022-11-14T05:11:51;3.00;1.00
843;DHT22;407;48.884;9.126;2022-11-14T05:14:16;3.00;1.00
843;DHT22;407;48.884;9.126;2022-11-14T05:16:42;3.00;1.00
843;DHT22;407;48.884;9.126;2022-11-14T05:19:08;3.00;1.00
843;DHT22;407;48.884;9.126;2022-11-14T05:21:34;3.20;15.10
843;DHT22;407;48.884;9.126;2022-11-14T05:23:59;3.20;14.80
843;DHT22;407;48.884;9.126;2022-11-14T05:26:25;3.30;3.40
843;DHT22;407;48.884;9.126;2022-11-14T05:28:50;3.30;1.00
843;DHT22;407;48.884;9.126;2022-11-14T05:31:16;3.60;1.00
843;DHT22;407;48.884;9.126;2022-11-14T05:33:45;3.20;1.00
843;DHT22;407;48.884;9.126;2022-11-14T05:36:13;3.10;1.00
843;DHT22;407;48.884;9.126;2022-11-14T05:38:39;3.20;1.00
843;DHT22;407;48.884;9.126;2022-11-14T05:41:07;4.30;1.00
843;DHT22;407;48.884;9.126;2022-11-14T05:43:33;2.90;1.00
843;DHT22;407;48.884;9.126;2022-11-14T05:46:04;3.00;1.00
843;DHT22;407;48.884;9.126;2022-11-14T05:48:30;3.10;1.00
843;DHT22;407;48.884;9.126;2022-11-14T05:51:01;3.10;1.00
843;DHT22;407;48.884;9.126;2022-11-14T05:53:28;3.10;1.00
843;DHT22;407;48.884;9.126;2022-11-14T05:55:54;3.10;1.00
843;DHT22;407;48.884;9.126;2022-11-14T05:58:20;3.10;1.00
843;DHT22;407;48.884;9.126;2022-11-14T06:00:46;3.10;1.00
843;DHT22;407;48.884;9.126;2022-11-14T06:03:12;3.10;1.00
843;DHT22;407;48.884;9.126;2022-11-14T06:05:39;4.10;1.00
843;DHT22;407;48.884;9.126;2022-11-14T06:08:05;3.00;1.00
843;DHT22;407;48.884;9.126;2022-11-14T06:10:31;3.00;1.00
843;DHT22;407;48.884;9.126;2022-11-14T06:12:58;3.00;1.00
843;DHT22;407;48.884;9.126;2022-11-14T06:15:24;3.10;1.00
843;DHT22;407;48.884;9.126;2022-11-14T06:17:52;3.00;1.00
843;DHT22;407;48.884;9.126;2022-11-14T06:20:17;3.00;1.00
843;DHT22;407;48.884;9.126;2022-11-14T06:22:43;3.10;1.00
843;DHT22;407;48.884;9.126;2022-11-14T06:25:09;3.10;1.00
843;DHT22;407;48.884;9.126;2022-11-14T06:27:34;3.10;1.00
843;DHT22;407;48.884;9.126;2022-11-14T06:30:00;3.20;1.00
843;DHT22;407;48.884;9.126;2022-11-14T06:32:26;3.30;1.00
843;DHT22;407;48.884;9.126;2022-11-14T06:34:51;3.30;1.00
843;DHT22;407;48.884;9.126;2022-11-14T06:37:17;3.50;1.00
843;DHT22;407;48.884;9.126;2022-11-14T06:39:42;3.30;1.00
843;DHT22;407;48.884;9.126;2022-11-14T06:42:08;3.30;9.10
843;DHT22;407;48.884;9.126;2022-11-14T06:44:33;3.40;10.70
843;DHT22;407;48.884;9.126;2022-11-14T06:46:59;3.40;16.30
843;DHT22;407;48.884;9.126;2022-11-14T06:49:25;3.50;71.20
843;DHT22;407;48.884;9.126;2022-11-14T06:51:52;3.70;42.50
843;DHT22;407;48.884;9.126;2022-11-14T06:54:18;2.60;19.90
843;DHT22;407;48.884;9.126;2022-11-14T06:56:44;4.00;31.10
843;DHT22;407;48.884;9.126;2022-11-14T06:59:09;4.10;18.10
843;DHT22;407;48.884;9.126;2022-11-14T07:01:35;5.30;1.00
843;DHT22;407;48.884;9.126;2022-11-14T07:04:00;4.70;1.00
843;DHT22;407;48.884;9.126;2022-11-14T07:06:28;4.70;1.00
843;DHT22;407;48.884;9.126;2022-11-14T07:08:55;4.80;1.00
843;DHT22;407;48.884;9.126;2022-11-14T07:11:24;5.30;1.00
843;DHT22;407;48.884;9.126;2022-11-14T07:13:54;6.00;1.00
843;DHT22;407;48.884;9.126;2022-11-14T07:16:22;5.70;1.00
843;DHT22;407;48.884;9.126;2022-11-14T07:18:48;4.90;1.00
843;DHT22;407;48.884;9.126;2022-11-14T07:21:13;4.90;1.00
843;DHT22;407;48.884;9.126;2022-11-14T07:23:39;4.90;1.00
843;DHT22;407;48.884;9.126;2022-11-14T07:26:07;4.60;1.00
843;DHT22;407;48.884;9.126;2022-11-14T07:28:35;4.70;1.00
843;DHT22;407;48.884;9.126;2022-11-14T07:31:06;4.70;1.00
843;DHT22;407;48.884;9.126;2022-11-14T07:33:32;4.70;1.00
843;DHT22;407;48.884;9.126;2022-11-14T07:35:58;4.80;1.00
843;DHT22;407;48.884;9.126;2022-11-14T07:38:24;4.90;1.00
843;DHT22;407;48.884;9.126;2022-11-14T07:40:54;4.90;1.00
843;DHT22;407;48.884;9.126;2022-11-14T07:43:20;4.90;1.00
843;DHT22;407;48.884;9.126;2022-11-14T07:45:45;5.00;1.00
843;DHT22;407;48.884;9.126;2022-11-14T07:48:11;5.70;1.00
843;DHT22;407;48.884;9.126;2022-11-14T07:50:37;6.00;1.00
843;DHT22;407;48.884;9.126;2022-11-14T07:53:02;5.60;1.00
843;DHT22;407;48.884;9.126;2022-11-14T07:55:28;5.40;1.00
843;DHT22;407;48.884;9.126;2022-11-14T07:57:54;5.50;1.00
843;DHT22;407;48.884;9.126;2022-11-14T08:00:23;5.40;1.00
843;DHT22;407;48.884;9.126;2022-11-14T08:02:48;5.50;1.00
843;DHT22;407;48.884;9.126;2022-11-14T08:05:14;6.40;1.00
843;DHT22;407;48.884;9.126;2022-11-14T08:07:40;5.70;1.00
843;DHT22;407;48.884;9.126;2022-11-14T08:10:06;5.90;99.90
843;DHT22;407;48.884;9.126;2022-11-14T08:12:32;5.70;99.90
843;DHT22;407;48.884;9.126;2022-11-14T08:14:58;5.60;99.90
843;DHT22;407;48.884;9.126;2022-11-14T08:17:23;5.60;1.00
843;DHT22;407;48.884;9.126;2022-11-14T08:19:49;6.20;99.90
843;DHT22;407;48.884;9.126;2022-11-14T08:22:14;5.70;1.00
843;DHT22;407;48.884;9.126;2022-11-14T08:24:40;5.70;1.00
843;DHT22;407;48.884;9.126;2022-11-14T08:27:06;5.70;99.90
843;DHT22;407;48.884;9.126;2022-11-14T08:29:31;6.30;1.00
843;DHT22;407;48.884;9.126;2022-11-14T08:31:57;5.80;99.90
843;DHT22;407;48.884;9.126;2022-11-14T08:34:24;6.50;1.00
843;DHT22;407;48.884;9.126;2022-11-14T08:36:49;5.80;1.00
843;DHT22;407;48.884;9.126;2022-11-14T08:39:15;5.70;1.00
843;DHT22;407;48.884;9.126;2022-11-14T08:41:41;6.00;1.00
843;DHT22;407;48.884;9.126;2022-11-14T08:44:06;5.60;1.00
843;DHT22;407;48.884;9.126;2022-11-14T08:46:32;6.80;1.00
843;DHT22;407;48.884;9.126;2022-11-14T08:48:57;6.60;1.00
843;DHT22;407;48.884;9.126;2022-11-14T08:51:23;5.90;1.00
843;DHT22;407;48.884;9.126;2022-11-14T08:53:49;6.60;1.00
843;DHT22;407;48.884;9.126;2022-11-14T08:56:16;6.20;1.00
843;DHT22;407;48.884;9.126;2022-11-14T08:58:42;6.40;1.00
843;DHT22;407;48.884;9.126;2022-11-14T09:01:08;7.20;1.00
843;DHT22;407;48.884;9.126;2022-11-14T09:03:34;7.00;66.40
843;DHT22;407;48.884;9.126;2022-11-14T09:06:00;7.60;99.90
843;DHT22;407;48.884;9.126;2022-11-14T09:08:27;8.10;99.90
843;DHT22;407;48.884;9.126;2022-11-14T09:10:53;8.50;99.90
843;DHT22;407;48.884;9.126;2022-11-14T09:13:19;8.70;99.90
843;DHT22;407;48.884;9.126;2022-11-14T09:15:44;8.90;99.90
843;DHT22;407;48.884;9.126;2022-11-14T09:18:10;9.00;99.90
843;DHT22;407;48.884;9.126;2022-11-14T09:20:36;9.20;99.90
843;DHT22;407;48.884;9.126;2022-11-14T09:23:02;9.20;99.90
843;DHT22;407;48.884;9.126;2022-11-14T09:25:29;9.30;93.20
843;DHT22;407;48.884;9.126;2022-11-14T09:27:55;9.30;80.00
843;DHT22;407;48.884;9.126;2022-11-14T09:30:21;9.30;78.70
843;DHT22;407;48.884;9.126;2022-11-14T09:32:49;9.40;43.30
843;DHT22;407;48.884;9.126;2022-11-14T09:35:15;9.50;1.00
843;DHT22;407;48.884;9.126;2022-11-14T09:37:41;9.60;1.00
843;DHT22;407;48.884;9.126;2022-11-14T09:40:09;9.50;1.00
843;DHT22;407;48.884;9.126;2022-11-14T09:45:21;9.60;1.00
843;DHT22;407;48.884;9.126;2022-11-14T09:47:58;9.50;1.00
843;DHT22;407;48.884;9.126;2022-11-14T09:50:34;9.60;1.00
843;DHT22;407;48.884;9.126;2022-11-14T09:53:29;10.10;1.00
843;DHT22;407;48.884;9.126;2022-11-14T09:55:51;9.70;1.00
843;DHT22;407;48.884;9.126;2022-11-14T09:58:19;9.60;1.00
843;DHT22;407;48.884;9.126;2022-11-14T10:06:51;9.70;1.00
843;DHT22;407;48.884;9.126;2022-11-14T10:17:43;10.00;1.00
843;DHT22;407;48.884;9.126;2022-11-14T10:26:28;10.70;1.00
843;DHT22;407;48.884;9.126;2022-11-14T10:29:16;10.90;1.00
843;DHT22;407;48.884;9.126;2022-11-14T10:34:42;11.50;99.90
843;DHT22;407;48.884;9.126;2022-11-14T10:37:36;11.90;99.90
843;DHT22;407;48.884;9.126;2022-11-14T10:40:21;12.80;99.90
843;DHT22;407;48.884;9.126;2022-11-14T10:42:57;12.90;98.10
843;DHT22;407;48.884;9.126;2022-11-14T10:45:28;12.60;99.90
843;DHT22;407;48.884;9.126;2022-11-14T10:47:59;12.40;99.90
843;DHT22;407;48.884;9.126;2022-11-14T10:53:17;12.10;30.70
843;DHT22;407;48.884;9.126;2022-11-14T10:55:48;11.90;1.00
843;DHT22;407;48.884;9.126;2022-11-14T10:58:14;11.80;1.00
843;DHT22;407;48.884;9.126;2022-11-14T11:00:39;11.90;52.40
843;DHT22;407;48.884;9.126;2022-11-14T11:03:05;11.90;1.00
843;DHT22;407;48.884;9.126;2022-11-14T11:05:52;12.00;1.00
843;DHT22;407;48.884;9.126;2022-11-14T11:08:24;12.20;1.00
843;DHT22;407;48.884;9.126;2022-11-14T11:11:13;12.40;93.30
843;DHT22;407;48.884;9.126;2022-11-14T11:13:56;12.60;1.00
843;DHT22;407;48.884;9.126;2022-11-14T11:16:25;12.70;99.90
843;DHT22;407;48.884;9.126;2022-11-14T11:18:51;12.60;1.00
843;DHT22;407;48.884;9.126;2022-11-14T11:21:19;12.80;99.90
843;DHT22;407;48.884;9.126;2022-11-14T11:23:54;12.70;99.90
843;DHT22;407;48.884;9.126;2022-11-14T11:26:25;12.40;2.10
843;DHT22;407;48.884;9.126;2022-11-14T11:31:26;12.50;27.70
843;DHT22;407;48.884;9.126;2022-11-14T11:33:52;12.60;17.50
843;DHT22;407;48.884;9.126;2022-11-14T11:36:21;12.80;1.00
843;DHT22;407;48.884;9.126;2022-11-14T11:38:48;13.00;99.90
843;DHT22;407;48.884;9.126;2022-11-14T11:41:26;12.80;1.00
843;DHT22;407;48.884;9.126;2022-11-14T11:43:59;12.70;99.90
843;DHT22;407;48.884;9.126;2022-11-14T11:46:28;12.70;11.40
843;DHT22;407;48.884;9.126;2022-11-14T11:51:45;12.50;99.90
843;DHT22;407;48.884;9.126;2022-11-14T11:54:28;12.50;12.60
843;DHT22;407;48.884;9.126;2022-11-14T11:56:59;12.40;99.90
843;DHT22;407;48.884;9.126;2022-11-14T11:59:32;12.40;99.90
843;DHT22;407;48.884;9.126;2022-11-14T12:04:43;12.30;99.90
843;DHT22;407;48.884;9.126;2022-11-14T12:07:18;12.20;99.90
843;DHT22;407;48.884;9.126;2022-11-14T12:09:45;12.20;1.00
843;DHT22;407;48.884;9.126;2022-11-14T12:14:54;12.00;1.00
843;DHT22;407;48.884;9.126;2022-11-14T12:22:47;12.20;99.90
843;DHT22;407;48.884;9.126;2022-11-14T12:25:42;12.40;99.90
843;DHT22;407;48.884;9.126;2022-11-14T12:28:32;12.40;1.00
843;DHT22;407;48.884;9.126;2022-11-14T12:31:03;12.40;1.00
843;DHT22;407;48.884;9.126;2022-11-14T12:33:33;12.30;1.00
843;DHT22;407;48.884;9.126;2022-11-14T12:36:02;12.30;1.00
843;DHT22;407;48.884;9.126;2022-11-14T12:38:34;12.30;1.00
843;DHT22;407;48.884;9.126;2022-11-14T12:41:05;12.50;99.90
843;DHT22;407;48.884;9.126;2022-11-14T12:43:35;12.80;99.90
843;DHT22;407;48.884;9.126;2022-11-14T12:46:03;13.10;1.00
843;DHT22;407;48.884;9.126;2022-11-14T12:48:37;13.50;1.00
843;DHT22;407;48.884;9.126;2022-11-14T12:51:08;13.70;99.90
843;DHT22;407;48.884;9.126;2022-11-14T12:53:53;13.70;99.90
843;DHT22;407;48.884;9.126;2022-11-14T13:10:15;14.10;1.00
843;DHT22;407;48.884;9.126;2022-11-14T13:13:08;13.60;1.00
843;DHT22;407;48.884;9.126;2022-11-14T13:16:03;13.50;1.00
843;DHT22;407;48.884;9.126;2022-11-14T13:21:34;13.50;1.00
843;DHT22;407;48.884;9.126;2022-11-14T13:24:16;13.40;1.00
843;DHT22;407;48.884;9.126;2022-11-14T13:26:47;13.30;1.00
843;DHT22;407;48.884;9.126;2022-11-14T13:32:11;13.30;1.00
843;DHT22;407;48.884;9.126;2022-11-14T13:34:52;13.40;1.00
843;DHT22;407;48.884;9.126;2022-11-14T13:38:04;13.30;1.00
843;DHT22;407;48.884;9.126;2022-11-14T13:46:51;13.50;1.00
843;DHT22;407;48.884;9.126;2022-11-14T13:49:51;13.70;1.00
843;DHT22;407;48.884;9.126;2022-11-14T13:52:18;13.80;1.00
843;DHT22;407;48.884;9.126;2022-11-14T13:54:53;14.10;1.00
843;DHT22;407;48.884;9.126;2022-11-14T14:00:17;14.20;1.00
843;DHT22;407;48.884;9.126;2022-11-14T14:02:52;14.40;1.00
843;DHT22;407;48.884;9.126;2022-11-14T14:16:38;14.90;99.90
843;DHT22;407;48.884;9.126;2022-11-14T14:30:28;14.80;99.90
843;DHT22;407;48.884;9.126;2022-11-14T14:33:13;14.70;99.90
843;DHT22;407;48.884;9.126;2022-11-14T14:35:49;14.60;99.90
843;DHT22;407;48.884;9.126;2022-11-14T14:38:26;14.60;99.90
843;DHT22;407;48.884;9.126;2022-11-14T14:40:54;14.60;99.90
843;DHT22;407;48.884;9.126;2022-11-14T14:43:32;14.60;99.90
843;DHT22;407;48.884;9.126;2022-11-14T14:46:00;14.60;99.90
843;DHT22;407;48.884;9.126;2022-11-14T14:48:35;14.50;99.90
843;DHT22;407;48.884;9.126;2022-11-14T14:51:03;14.20;99.90
843;DHT22;407;48.884;9.126;2022-11-14T14:53:33;13.90;99.90
843;DHT22;407;48.884;9.126;2022-11-14T14:56:02;13.90;99.90
843;DHT22;407;48.884;9.126;2022-11-14T14:58:30;13.90;99.90
843;DHT22;407;48.884;9.126;2022-11-14T15:01:05;13.80;99.90
843;DHT22;407;48.884;9.126;2022-11-14T15:03:45;13.80;99.90
843;DHT22;407;48.884;9.126;2022-11-14T15:06:31;13.90;99.90
843;DHT22;407;48.884;9.126;2022-11-14T15:09:14;13.90;99.90
843;DHT22;407;48.884;9.126;2022-11-14T15:11:44;13.90;99.90
843;DHT22;407;48.884;9.126;2022-11-14T15:14:16;13.90;99.90
843;DHT22;407;48.884;9.126;2022-11-14T15:16:43;13.90;99.90
843;DHT22;407;48.884;9.126;2022-11-14T15:19:13;13.90;99.90
843;DHT22;407;48.884;9.126;2022-11-14T15:21:40;13.80;99.90
843;DHT22;407;48.884;9.126;2022-11-14T15:24:21;13.80;99.90
843;DHT22;407;48.884;9.126;2022-11-14T15:26:48;13.80;99.90
843;DHT22;407;48.884;9.126;2022-11-14T15:29:17;13.80;99.90
843;DHT22;407;48.884;9.126;2022-11-14T15:31:55;13.80;99.90
843;DHT22;407;48.884;9.126;2022-11-14T15:34:30;13.70;99.90
843;DHT22;407;48.884;9.126;2022-11-14T15:39:42;13.60;99.90
843;DHT22;407;48.884;9.126;2022-11-14T15:42:27;13.60;99.90
843;DHT22;407;48.884;9.126;2022-11-14T15:44:56;13.50;99.90
843;DHT22;407;48.884;9.126;2022-11-14T15:47:26;13.60;99.90
843;DHT22;407;48.884;9.126;2022-11-14T15:50:04;13.50;99.90
843;DHT22;407;48.884;9.126;2022-11-14T15:52:34;13.40;99.90
843;DHT22;407;48.884;9.126;2022-11-14T15:55:01;13.40;99.90
843;DHT22;407;48.884;9.126;2022-11-14T15:57:30;13.40;99.90
843;DHT22;407;48.884;9.126;2022-11-14T15:59:56;13.20;99.90
843;DHT22;407;48.884;9.126;2022-11-14T16:02:25;13.00;99.90
843;DHT22;407;48.884;9.126;2022-11-14T16:04:53;13.00;99.90
843;DHT22;407;48.884;9.126;2022-11-14T16:07:20;13.00;99.90
843;DHT22;407;48.884;9.126;2022-11-14T16:09:46;12.90;99.90
843;DHT22;407;48.884;9.126;2022-11-14T16:12:12;12.80;99.90
843;DHT22;407;48.884;9.126;2022-11-14T16:14:37;12.70;99.90
843;DHT22;407;48.884;9.126;2022-11-14T16:17:03;12.60;99.90
843;DHT22;407;48.884;9.126;2022-11-14T16:19:29;12.60;99.90
843;DHT22;407;48.884;9.126;2022-11-14T16:21:58;12.50;99.90
843;DHT22;407;48.884;9.126;2022-11-14T16:24:27;12.30;99.90
843;DHT22;407;48.884;9.126;2022-11-14T16:26:53;12.20;99.90
843;DHT22;407;48.884;9.126;2022-11-14T16:29:18;12.30;99.90
843;DHT22;407;48.884;9.126;2022-11-14T16:31:44;12.20;99.90
843;DHT22;407;48.884;9.126;2022-11-14T16:34:15;12.10;99.90
843;DHT22;407;48.884;9.126;2022-11-14T16:36:42;12.00;99.90
843;DHT22;407;48.884;9.126;2022-11-14T16:39:10;12.10;99.90
843;DHT22;407;48.884;9.126;2022-11-14T16:41:38;12.10;99.90
843;DHT22;407;48.884;9.126;2022-11-14T16:44:04;12.10;99.90
843;DHT22;407;48.884;9.126;2022-11-14T16:46:29;12.00;99.90
843;DHT22;407;48.884;9.126;2022-11-14T16:48:55;12.00;99.90
843;DHT22;407;48.884;9.126;2022-11-14T16:51:20;12.00;99.90
843;DHT22;407;48.884;9.126;2022-11-14T16:53:46;12.00;99.90
843;DHT22;407;48.884;9.126;2022-11-14T16:56:12;11.90;99.90
843;DHT22;407;48.884;9.126;2022-11-14T16:58:38;11.90;99.90
843;DHT22;407;48.884;9.126;2022-11-14T17:01:06;11.80;99.90
843;DHT22;407;48.884;9.126;2022-11-14T17:03:32;11.80;99.90
843;DHT22;407;48.884;9.126;2022-11-14T17:05:58;11.80;99.90
843;DHT22;407;48.884;9.126;2022-11-14T17:08:24;11.80;99.90
843;DHT22;407;48.884;9.126;2022-11-14T17:10:50;11.80;99.90
843;DHT22;407;48.884;9.126;2022-11-14T17:13:15;11.70;1.00
843;DHT22;407;48.884;9.126;2022-11-14T17:15:42;11.70;1.00
843;DHT22;407;48.884;9.126;2022-11-14T17:18:08;11.70;1.00
843;DHT22;407;48.884;9.126;2022-11-14T17:20:36;11.60;1.00
843;DHT22;407;48.884;9.126;2022-11-14T17:23:02;11.60;1.00
843;DHT22;407;48.884;9.126;2022-11-14T17:25:29;11.60;1.00
843;DHT22;407;48.884;9.126;2022-11-14T17:27:54;11.60;1.00
843;DHT22;407;48.884;9.126;2022-11-14T17:30:20;11.50;1.00
843;DHT22;407;48.884;9.126;2022-11-14T17:32:45;11.40;99.90
843;DHT22;407;48.884;9.126;2022-11-14T17:35:11;11.30;99.90
843;DHT22;407;48.884;9.126;2022-11-14T17:37:37;11.40;99.50
843;DHT22;407;48.884;9.126;2022-11-14T17:40:03;11.40;99.90
843;DHT22;407;48.884;9.126;2022-11-14T17:42:28;11.50;23.40
843;DHT22;407;48.884;9.126;2022-11-14T17:44:54;11.50;1.00
843;DHT22;407;48.884;9.126;2022-11-14T17:47:20;11.50;1.00
843;DHT22;407;48.884;9.126;2022-11-14T17:49:45;11.50;1.00
843;DHT22;407;48.884;9.126;2022-11-14T17:52:11;11.50;1.00
843;DHT22;407;48.884;9.126;2022-11-14T17:54:36;11.60;1.00
843;DHT22;407;48.884;9.126;2022-11-14T17:57:06;11.60;1.00
843;DHT22;407;48.884;9.126;2022-11-14T17:59:31;11.70;1.00
843;DHT22;407;48.884;9.126;2022-11-14T18:01:57;11.70;1.00
843;DHT22;407;48.884;9.126;2022-11-14T18:04:26;11.70;1.00
843;DHT22;407;48.884;9.126;2022-11-14T18:06:52;11.80;1.00
843;DHT22;407;48.884;9.126;2022-11-14T18:09:18;11.70;1.00
843;DHT22;407;48.884;9.126;2022-11-14T18:11:44;11.80;1.00
843;DHT22;407;48.884;9.126;2022-11-14T18:14:10;11.90;1.00
843;DHT22;407;48.884;9.126;2022-11-14T18:16:37;11.90;1.00
843;DHT22;407;48.884;9.126;2022-11-14T18:19:03;11.90;1.00
843;DHT22;407;48.884;9.126;2022-11-14T18:21:29;12.00;1.00
843;DHT22;407;48.884;9.126;2022-11-14T18:23:58;12.00;1.00
843;DHT22;407;48.884;9.126;2022-11-14T18:26:25;12.00;1.00
843;DHT22;407;48.884;9.126;2022-11-14T18:28:55;12.00;1.00
843;DHT22;407;48.884;9.126;2022-11-14T18:31:21;11.90;1.00
843;DHT22;407;48.884;9.126;2022-11-14T18:33:47;11.90;1.00
843;DHT22;407;48.884;9.126;2022-11-14T18:36:13;11.90;1.00
843;DHT22;407;48.884;9.126;2022-11-14T18:38:39;12.10;1.00
843;DHT22;407;48.884;9.126;2022-11-14T18:41:11;12.10;1.00
843;DHT22;407;48.884;9.126;2022-11-14T18:43:37;12.00;1.00